El-djazair II — 7TBR — position and weather

sailwx.info

Track history (hours):
 
Tides and Currents Weather Stations Pressure Air Temp Water Temp Dewpoint Dewpoint Depression Visibility Wind Speed Wind Dir Waves Ship Positions

El-djazair II

Last reported at 2018-Jan-12 07:16 UTC. Time now 2018-Jan-18 17:57 UTC.
Position N 38°09' W 000°23'.

Length 146 m; draft 6.3 m.

Type: Passenger vessel. MMSI: 605026190.

Date/timePositionNaut miles runAvg speedWind from/ knotsBaromVisibWave heightAir tempDewpointWater temp
2018-Jan-12 07:16N 38°09' W 000°23'519.5
2018-Jan-12 07:00N 38°04' W 000°24'1019.7
2018-Jan-12 06:30N 37°54' W 000°26'1019.9
2018-Jan-12 06:00N 37°44' W 000°28'1019.5
2018-Jan-12 05:30N 37°35' W 000°30'1318.4
2018-Jan-12 04:49N 37°23' W 000°36'1718.8
2018-Jan-12 03:55N 37°06' W 000°41'  
2018-Jan-07 22:51N 37°25' W 000°59'718.9
2018-Jan-07 22:30N 37°27' W 000°51'1718.3
2018-Jan-07 21:35N 37°34' W 000°32'218.4
2018-Jan-07 21:30N 37°36' W 000°31'918.1
2018-Jan-07 21:00N 37°44' W 000°29'1117.9
2018-Jan-07 20:24N 37°55' W 000°26'21016.2
2018-Jan-07 07:24N 41°04' E 001°33'717.9
2018-Jan-07 07:00N 41°07' E 001°42'918.4
2018-Jan-07 06:30N 41°10' E 001°53'19018.3
2018-Jan-06 20:06N 43°10' E 005°12'319.3
2018-Jan-06 19:55N 43°12' E 005°16'615.5
2018-Jan-06 19:30N 43°18' E 005°21'1 1.8
2018-Jan-06 18:58N 43°18' E 005°22'0 0.0
2018-Jan-06 18:28N 43°18' E 005°22'0 0.0
2018-Jan-06 17:46N 43°18' E 005°22'0 0.0
2018-Jan-06 17:30N 43°18' E 005°22'3 5.3
2018-Jan-06 16:57N 43°16' E 005°19'21919.0
2018-Jan-06 05:25N 40°10' E 002°43'820.2
2018-Jan-06 05:00N 40°04' E 002°37'221 7.5
2018-Jan-04 23:43N 37°24' W 000°39'418.1
2018-Jan-04 23:30N 37°28' W 000°39'917.4
2018-Jan-04 23:00N 37°35' W 000°33'917.7
2018-Jan-04 22:30N 37°44' W 000°30'9 0.5
2018-Jan-04 04:40N 37°45' W 000°19'319.8
2018-Jan-04 04:30N 37°42' W 000°21'1019.6
2018-Jan-04 04:01N 37°33' W 000°26'  
Track history (hours):
 
Tides and Currents Weather Stations Pressure Air Temp Water Temp Dewpoint Dewpoint Depression Visibility Wind Speed Wind Dir Waves Ship Positions

El-djazair II

Last reported at 2018-Jan-12 07:16 UTC. Time now 2018-Jan-18 17:57 UTC.
Position N 38°09' W 000°23'.

Length 146 m; draft 6.3 m.

Type: Passenger vessel. MMSI: 605026190.

Date/timePositionNaut miles runAvg speedWind from/ knotsBaromVisibWave heightAir tempDewpointWater temp
2018-Jan-12 07:16N 38°09' W 000°23'519.5
2018-Jan-12 07:00N 38°04' W 000°24'1019.7
2018-Jan-12 06:30N 37°54' W 000°26'1019.9
2018-Jan-12 06:00N 37°44' W 000°28'1019.5
2018-Jan-12 05:30N 37°35' W 000°30'1318.4
2018-Jan-12 04:49N 37°23' W 000°36'1718.8
2018-Jan-12 03:55N 37°06' W 000°41'  
2018-Jan-07 22:51N 37°25' W 000°59'718.9
2018-Jan-07 22:30N 37°27' W 000°51'1718.3
2018-Jan-07 21:35N 37°34' W 000°32'218.4
2018-Jan-07 21:30N 37°36' W 000°31'918.1
2018-Jan-07 21:00N 37°44' W 000°29'1117.9
2018-Jan-07 20:24N 37°55' W 000°26'21016.2
2018-Jan-07 07:24N 41°04' E 001°33'717.9
2018-Jan-07 07:00N 41°07' E 001°42'918.4
2018-Jan-07 06:30N 41°10' E 001°53'19018.3
2018-Jan-06 20:06N 43°10' E 005°12'319.3
2018-Jan-06 19:55N 43°12' E 005°16'615.5
2018-Jan-06 19:30N 43°18' E 005°21'1 1.8
2018-Jan-06 18:58N 43°18' E 005°22'0 0.0
2018-Jan-06 18:28N 43°18' E 005°22'0 0.0
2018-Jan-06 17:46N 43°18' E 005°22'0 0.0
2018-Jan-06 17:30N 43°18' E 005°22'3 5.3
2018-Jan-06 16:57N 43°16' E 005°19'21919.0
2018-Jan-06 05:25N 40°10' E 002°43'820.2
2018-Jan-06 05:00N 40°04' E 002°37'221 7.5
2018-Jan-04 23:43N 37°24' W 000°39'418.1
2018-Jan-04 23:30N 37°28' W 000°39'917.4
2018-Jan-04 23:00N 37°35' W 000°33'917.7
2018-Jan-04 22:30N 37°44' W 000°30'9 0.5
2018-Jan-04 04:40N 37°45' W 000°19'319.8
2018-Jan-04 04:30N 37°42' W 000°21'1019.6
2018-Jan-04 04:01N 37°33' W 000°26'  

Dump ship's entire track history